sensor_id;sensor_type;location;lat;lon;timestamp;temperature;humidity
17483;DHT22;8858;52.308;20.994;2023-07-30T00:00:43;20.00;99.90
17483;DHT22;8858;52.308;20.994;2023-07-30T00:03:11;19.90;99.90
17483;DHT22;8858;52.308;20.994;2023-07-30T00:05:40;19.90;99.90
17483;DHT22;8858;52.308;20.994;2023-07-30T00:08:08;19.90;99.90
17483;DHT22;8858;52.308;20.994;2023-07-30T00:10:38;19.90;99.90
17483;DHT22;8858;52.308;20.994;2023-07-30T00:13:09;19.90;99.90
17483;DHT22;8858;52.308;20.994;2023-07-30T00:15:42;19.90;99.90
17483;DHT22;8858;52.308;20.994;2023-07-30T00:18:10;19.90;99.90
17483;DHT22;8858;52.308;20.994;2023-07-30T00:20:38;19.80;99.90
17483;DHT22;8858;52.308;20.994;2023-07-30T00:23:07;19.90;99.90
17483;DHT22;8858;52.308;20.994;2023-07-30T00:25:40;19.90;99.90
17483;DHT22;8858;52.308;20.994;2023-07-30T00:28:08;19.90;99.90
17483;DHT22;8858;52.308;20.994;2023-07-30T00:30:37;19.90;99.90
17483;DHT22;8858;52.308;20.994;2023-07-30T00:33:06;19.90;99.90
17483;DHT22;8858;52.308;20.994;2023-07-30T00:35:35;20.00;99.90
17483;DHT22;8858;52.308;20.994;2023-07-30T00:38:07;20.00;99.90
17483;DHT22;8858;52.308;20.994;2023-07-30T00:40:40;20.00;99.90
17483;DHT22;8858;52.308;20.994;2023-07-30T00:43:09;19.90;99.90
17483;DHT22;8858;52.308;20.994;2023-07-30T00:45:40;19.90;99.90
17483;DHT22;8858;52.308;20.994;2023-07-30T00:48:11;19.90;99.90
17483;DHT22;8858;52.308;20.994;2023-07-30T00:50:40;19.90;99.90
17483;DHT22;8858;52.308;20.994;2023-07-30T00:53:09;19.90;99.90
17483;DHT22;8858;52.308;20.994;2023-07-30T00:55:40;19.90;99.90
17483;DHT22;8858;52.308;20.994;2023-07-30T00:58:10;19.90;99.90
17483;DHT22;8858;52.308;20.994;2023-07-30T01:00:39;19.90;99.90
17483;DHT22;8858;52.308;20.994;2023-07-30T01:03:08;20.00;99.90
17483;DHT22;8858;52.308;20.994;2023-07-30T01:05:36;20.00;99.90
17483;DHT22;8858;52.308;20.994;2023-07-30T01:08:05;20.00;99.90
17483;DHT22;8858;52.308;20.994;2023-07-30T01:10:35;20.00;99.90
17483;DHT22;8858;52.308;20.994;2023-07-30T01:13:10;20.00;99.90
17483;DHT22;8858;52.308;20.994;2023-07-30T01:15:40;20.00;99.90
17483;DHT22;8858;52.308;20.994;2023-07-30T01:18:09;20.00;99.90
17483;DHT22;8858;52.308;20.994;2023-07-30T01:20:37;20.00;99.90
17483;DHT22;8858;52.308;20.994;2023-07-30T01:23:07;20.00;99.90
17483;DHT22;8858;52.308;20.994;2023-07-30T01:25:37;20.00;99.90
17483;DHT22;8858;52.308;20.994;2023-07-30T01:28:06;20.00;99.90
17483;DHT22;8858;52.308;20.994;2023-07-30T01:30:41;20.00;99.90
17483;DHT22;8858;52.308;20.994;2023-07-30T01:33:11;19.90;99.90
17483;DHT22;8858;52.308;20.994;2023-07-30T01:35:41;19.90;99.90
17483;DHT22;8858;52.308;20.994;2023-07-30T01:38:16;20.00;99.90
17483;DHT22;8858;52.308;20.994;2023-07-30T01:40:47;20.00;99.90
17483;DHT22;8858;52.308;20.994;2023-07-30T01:43:16;19.90;99.90
17483;DHT22;8858;52.308;20.994;2023-07-30T01:45:44;19.90;99.90
17483;DHT22;8858;52.308;20.994;2023-07-30T01:48:12;19.90;99.90
17483;DHT22;8858;52.308;20.994;2023-07-30T01:50:41;19.90;99.90
17483;DHT22;8858;52.308;20.994;2023-07-30T01:53:10;19.80;99.90
17483;DHT22;8858;52.308;20.994;2023-07-30T01:55:40;19.80;99.90
17483;DHT22;8858;52.308;20.994;2023-07-30T01:58:10;19.80;99.90
17483;DHT22;8858;52.308;20.994;2023-07-30T02:00:39;19.80;99.90
17483;DHT22;8858;52.308;20.994;2023-07-30T02:03:13;19.80;99.90
17483;DHT22;8858;52.308;20.994;2023-07-30T02:05:41;19.90;99.90
17483;DHT22;8858;52.308;20.994;2023-07-30T02:08:10;19.90;99.90
17483;DHT22;8858;52.308;20.994;2023-07-30T02:10:42;19.80;99.90
17483;DHT22;8858;52.308;20.994;2023-07-30T02:13:11;19.80;99.90
17483;DHT22;8858;52.308;20.994;2023-07-30T02:15:41;19.80;99.90
17483;DHT22;8858;52.308;20.994;2023-07-30T02:18:10;19.80;99.90
17483;DHT22;8858;52.308;20.994;2023-07-30T02:20:38;19.80;99.90
17483;DHT22;8858;52.308;20.994;2023-07-30T02:23:06;19.80;99.90
17483;DHT22;8858;52.308;20.994;2023-07-30T02:25:35;19.80;99.90
17483;DHT22;8858;52.308;20.994;2023-07-30T02:28:09;19.80;99.90
17483;DHT22;8858;52.308;20.994;2023-07-30T02:30:41;19.80;99.90
17483;DHT22;8858;52.308;20.994;2023-07-30T02:33:09;19.80;99.90
17483;DHT22;8858;52.308;20.994;2023-07-30T02:35:38;19.80;99.90
17483;DHT22;8858;52.308;20.994;2023-07-30T02:38:07;19.70;99.90
17483;DHT22;8858;52.308;20.994;2023-07-30T02:40:36;19.70;99.90
17483;DHT22;8858;52.308;20.994;2023-07-30T02:43:04;19.70;99.90
17483;DHT22;8858;52.308;20.994;2023-07-30T02:45:34;19.70;99.90
17483;DHT22;8858;52.308;20.994;2023-07-30T02:48:04;19.70;99.90
17483;DHT22;8858;52.308;20.994;2023-07-30T02:50:33;19.70;99.90
17483;DHT22;8858;52.308;20.994;2023-07-30T02:53:04;19.70;99.90
17483;DHT22;8858;52.308;20.994;2023-07-30T02:55:33;19.70;99.90
17483;DHT22;8858;52.308;20.994;2023-07-30T02:58:01;19.70;99.90
17483;DHT22;8858;52.308;20.994;2023-07-30T03:00:30;19.70;99.90
17483;DHT22;8858;52.308;20.994;2023-07-30T03:02:59;19.60;99.90
17483;DHT22;8858;52.308;20.994;2023-07-30T03:05:32;19.60;99.90
17483;DHT22;8858;52.308;20.994;2023-07-30T03:08:00;19.50;99.90
17483;DHT22;8858;52.308;20.994;2023-07-30T03:10:28;19.50;99.90
17483;DHT22;8858;52.308;20.994;2023-07-30T03:12:57;19.50;99.90
17483;DHT22;8858;52.308;20.994;2023-07-30T03:15:27;19.40;99.90
17483;DHT22;8858;52.308;20.994;2023-07-30T03:18:00;19.40;99.90
17483;DHT22;8858;52.308;20.994;2023-07-30T03:20:28;19.30;99.90
17483;DHT22;8858;52.308;20.994;2023-07-30T03:22:56;19.30;99.90
17483;DHT22;8858;52.308;20.994;2023-07-30T03:25:25;19.30;99.90
17483;DHT22;8858;52.308;20.994;2023-07-30T03:27:54;19.20;99.90
17483;DHT22;8858;52.308;20.994;2023-07-30T03:30:22;19.20;99.90
17483;DHT22;8858;52.308;20.994;2023-07-30T03:32:51;19.20;99.90
17483;DHT22;8858;52.308;20.994;2023-07-30T03:35:25;19.10;99.90
17483;DHT22;8858;52.308;20.994;2023-07-30T03:37:53;19.10;99.90
17483;DHT22;8858;52.308;20.994;2023-07-30T03:40:22;19.10;99.90
17483;DHT22;8858;52.308;20.994;2023-07-30T03:42:52;19.10;99.90
17483;DHT22;8858;52.308;20.994;2023-07-30T03:45:21;19.10;99.90
17483;DHT22;8858;52.308;20.994;2023-07-30T03:47:49;19.10;99.90
17483;DHT22;8858;52.308;20.994;2023-07-30T03:50:18;19.10;99.90
17483;DHT22;8858;52.308;20.994;2023-07-30T03:52:48;19.00;99.90
17483;DHT22;8858;52.308;20.994;2023-07-30T03:55:17;19.00;99.90
17483;DHT22;8858;52.308;20.994;2023-07-30T03:57:45;19.00;99.90
17483;DHT22;8858;52.308;20.994;2023-07-30T04:00:17;19.00;99.90
17483;DHT22;8858;52.308;20.994;2023-07-30T04:02:46;19.00;99.90
17483;DHT22;8858;52.308;20.994;2023-07-30T04:05:14;19.00;99.90
17483;DHT22;8858;52.308;20.994;2023-07-30T04:07:42;19.10;99.90
17483;DHT22;8858;52.308;20.994;2023-07-30T04:10:12;19.00;99.90
17483;DHT22;8858;52.308;20.994;2023-07-30T04:12:41;19.00;99.90
17483;DHT22;8858;52.308;20.994;2023-07-30T04:15:09;19.00;99.90
17483;DHT22;8858;52.308;20.994;2023-07-30T04:17:38;19.00;99.90
17483;DHT22;8858;52.308;20.994;2023-07-30T04:20:09;19.00;99.90
17483;DHT22;8858;52.308;20.994;2023-07-30T04:22:37;19.00;99.90
17483;DHT22;8858;52.308;20.994;2023-07-30T04:25:09;19.00;99.90
17483;DHT22;8858;52.308;20.994;2023-07-30T04:27:39;19.00;99.90
17483;DHT22;8858;52.308;20.994;2023-07-30T04:30:12;19.00;99.90
17483;DHT22;8858;52.308;20.994;2023-07-30T04:32:40;19.00;99.90
17483;DHT22;8858;52.308;20.994;2023-07-30T04:35:08;19.00;99.90
17483;DHT22;8858;52.308;20.994;2023-07-30T04:37:38;19.00;99.90
17483;DHT22;8858;52.308;20.994;2023-07-30T04:40:08;19.00;99.90
17483;DHT22;8858;52.308;20.994;2023-07-30T04:42:36;19.00;99.90
17483;DHT22;8858;52.308;20.994;2023-07-30T04:45:08;19.00;99.90
17483;DHT22;8858;52.308;20.994;2023-07-30T04:47:40;19.00;99.90
17483;DHT22;8858;52.308;20.994;2023-07-30T04:50:10;19.00;99.90
17483;DHT22;8858;52.308;20.994;2023-07-30T04:52:39;19.00;99.90
17483;DHT22;8858;52.308;20.994;2023-07-30T04:55:09;18.90;99.90
17483;DHT22;8858;52.308;20.994;2023-07-30T04:57:37;19.00;99.90
17483;DHT22;8858;52.308;20.994;2023-07-30T05:00:08;18.90;99.90
17483;DHT22;8858;52.308;20.994;2023-07-30T05:02:39;18.90;99.90
17483;DHT22;8858;52.308;20.994;2023-07-30T05:05:08;18.90;99.90
17483;DHT22;8858;52.308;20.994;2023-07-30T05:07:36;18.90;99.90
17483;DHT22;8858;52.308;20.994;2023-07-30T05:10:06;18.80;99.90
17483;DHT22;8858;52.308;20.994;2023-07-30T05:12:37;18.80;99.90
17483;DHT22;8858;52.308;20.994;2023-07-30T05:15:09;18.80;99.90
17483;DHT22;8858;52.308;20.994;2023-07-30T05:17:38;18.80;99.90
17483;DHT22;8858;52.308;20.994;2023-07-30T05:20:07;18.80;99.90
17483;DHT22;8858;52.308;20.994;2023-07-30T05:22:38;18.80;99.90
17483;DHT22;8858;52.308;20.994;2023-07-30T05:25:09;18.80;99.90
17483;DHT22;8858;52.308;20.994;2023-07-30T05:27:37;18.80;99.90
17483;DHT22;8858;52.308;20.994;2023-07-30T05:30:07;18.80;99.90
17483;DHT22;8858;52.308;20.994;2023-07-30T05:32:37;18.80;99.90
17483;DHT22;8858;52.308;20.994;2023-07-30T05:35:08;18.80;99.90
17483;DHT22;8858;52.308;20.994;2023-07-30T05:37:36;18.80;99.90
17483;DHT22;8858;52.308;20.994;2023-07-30T05:40:06;18.80;99.90
17483;DHT22;8858;52.308;20.994;2023-07-30T05:42:35;18.90;99.90
17483;DHT22;8858;52.308;20.994;2023-07-30T05:45:05;18.90;99.90
17483;DHT22;8858;52.308;20.994;2023-07-30T05:47:34;18.90;99.90
17483;DHT22;8858;52.308;20.994;2023-07-30T05:50:05;19.00;99.90
17483;DHT22;8858;52.308;20.994;2023-07-30T05:52:34;18.90;99.90
17483;DHT22;8858;52.308;20.994;2023-07-30T05:55:04;19.00;99.90
17483;DHT22;8858;52.308;20.994;2023-07-30T05:57:32;19.00;99.90
17483;DHT22;8858;52.308;20.994;2023-07-30T06:00:05;19.00;99.90
17483;DHT22;8858;52.308;20.994;2023-07-30T06:02:37;19.00;99.90
17483;DHT22;8858;52.308;20.994;2023-07-30T06:05:08;19.10;99.90
17483;DHT22;8858;52.308;20.994;2023-07-30T06:07:37;19.10;99.90
17483;DHT22;8858;52.308;20.994;2023-07-30T06:10:05;19.10;99.90
17483;DHT22;8858;52.308;20.994;2023-07-30T06:12:34;19.10;99.90
17483;DHT22;8858;52.308;20.994;2023-07-30T06:15:05;19.00;99.90
17483;DHT22;8858;52.308;20.994;2023-07-30T06:17:34;19.10;99.90
17483;DHT22;8858;52.308;20.994;2023-07-30T06:20:04;19.10;99.90
17483;DHT22;8858;52.308;20.994;2023-07-30T06:22:33;19.10;99.90
17483;DHT22;8858;52.308;20.994;2023-07-30T06:25:02;19.20;99.90
17483;DHT22;8858;52.308;20.994;2023-07-30T06:27:31;19.20;99.90
17483;DHT22;8858;52.308;20.994;2023-07-30T06:30:00;19.20;99.90
17483;DHT22;8858;52.308;20.994;2023-07-30T06:32:28;19.30;99.90
17483;DHT22;8858;52.308;20.994;2023-07-30T06:34:56;19.30;99.90
17483;DHT22;8858;52.308;20.994;2023-07-30T06:37:28;19.30;99.90
17483;DHT22;8858;52.308;20.994;2023-07-30T06:39:57;19.30;99.90
17483;DHT22;8858;52.308;20.994;2023-07-30T06:42:26;19.30;99.90
17483;DHT22;8858;52.308;20.994;2023-07-30T06:44:54;19.30;99.90
17483;DHT22;8858;52.308;20.994;2023-07-30T06:47:22;19.30;99.90
17483;DHT22;8858;52.308;20.994;2023-07-30T06:49:54;19.40;99.90
17483;DHT22;8858;52.308;20.994;2023-07-30T06:52:23;19.40;99.90
17483;DHT22;8858;52.308;20.994;2023-07-30T06:54:52;19.50;99.90
17483;DHT22;8858;52.308;20.994;2023-07-30T06:57:22;19.50;99.90
17483;DHT22;8858;52.308;20.994;2023-07-30T06:59:50;19.50;99.90
17483;DHT22;8858;52.308;20.994;2023-07-30T07:02:18;19.50;99.90
17483;DHT22;8858;52.308;20.994;2023-07-30T07:04:47;19.50;99.90
17483;DHT22;8858;52.308;20.994;2023-07-30T07:07:16;19.50;99.90
17483;DHT22;8858;52.308;20.994;2023-07-30T07:09:44;19.50;99.90
17483;DHT22;8858;52.308;20.994;2023-07-30T07:12:13;19.50;99.90
17483;DHT22;8858;52.308;20.994;2023-07-30T07:14:43;19.50;99.90
17483;DHT22;8858;52.308;20.994;2023-07-30T07:17:11;19.50;99.90
17483;DHT22;8858;52.308;20.994;2023-07-30T07:19:40;19.50;99.90
17483;DHT22;8858;52.308;20.994;2023-07-30T07:22:10;19.50;99.90
17483;DHT22;8858;52.308;20.994;2023-07-30T07:24:41;19.60;99.90
17483;DHT22;8858;52.308;20.994;2023-07-30T07:27:10;19.70;99.90
17483;DHT22;8858;52.308;20.994;2023-07-30T07:29:39;19.70;99.90
17483;DHT22;8858;52.308;20.994;2023-07-30T07:32:08;19.70;99.90
17483;DHT22;8858;52.308;20.994;2023-07-30T07:34:40;19.80;99.90
17483;DHT22;8858;52.308;20.994;2023-07-30T07:37:08;19.70;99.90
17483;DHT22;8858;52.308;20.994;2023-07-30T07:39:37;19.70;99.90
17483;DHT22;8858;52.308;20.994;2023-07-30T07:42:06;19.70;99.90
17483;DHT22;8858;52.308;20.994;2023-07-30T07:44:34;19.80;99.90
17483;DHT22;8858;52.308;20.994;2023-07-30T07:47:02;19.80;99.90
17483;DHT22;8858;52.308;20.994;2023-07-30T07:49:32;19.70;99.90
17483;DHT22;8858;52.308;20.994;2023-07-30T07:52:03;19.80;99.90
17483;DHT22;8858;52.308;20.994;2023-07-30T07:54:31;19.90;99.90
17483;DHT22;8858;52.308;20.994;2023-07-30T07:57:00;19.90;99.90
17483;DHT22;8858;52.308;20.994;2023-07-30T07:59:29;20.00;99.90
17483;DHT22;8858;52.308;20.994;2023-07-30T08:01:57;20.00;99.90
17483;DHT22;8858;52.308;20.994;2023-07-30T08:04:25;20.00;99.90
17483;DHT22;8858;52.308;20.994;2023-07-30T08:06:57;20.10;99.90
17483;DHT22;8858;52.308;20.994;2023-07-30T08:09:27;20.20;99.90
17483;DHT22;8858;52.308;20.994;2023-07-30T08:11:55;20.20;99.90
17483;DHT22;8858;52.308;20.994;2023-07-30T08:14:23;20.30;99.90
17483;DHT22;8858;52.308;20.994;2023-07-30T08:16:52;20.20;99.90
17483;DHT22;8858;52.308;20.994;2023-07-30T08:19:22;20.30;99.90
17483;DHT22;8858;52.308;20.994;2023-07-30T08:21:50;20.30;99.90
17483;DHT22;8858;52.308;20.994;2023-07-30T08:24:21;20.40;99.90
17483;DHT22;8858;52.308;20.994;2023-07-30T08:26:50;20.40;99.90
17483;DHT22;8858;52.308;20.994;2023-07-30T08:29:18;20.40;99.90
17483;DHT22;8858;52.308;20.994;2023-07-30T08:31:46;20.40;99.90
17483;DHT22;8858;52.308;20.994;2023-07-30T08:34:15;20.50;99.90
17483;DHT22;8858;52.308;20.994;2023-07-30T08:36:43;20.50;99.90
17483;DHT22;8858;52.308;20.994;2023-07-30T08:39:11;20.60;99.90
17483;DHT22;8858;52.308;20.994;2023-07-30T08:41:41;20.60;99.90
17483;DHT22;8858;52.308;20.994;2023-07-30T08:44:09;20.60;99.90
17483;DHT22;8858;52.308;20.994;2023-07-30T08:46:39;20.70;99.90
17483;DHT22;8858;52.308;20.994;2023-07-30T08:49:07;20.70;99.90
17483;DHT22;8858;52.308;20.994;2023-07-30T08:51:36;20.80;99.90
17483;DHT22;8858;52.308;20.994;2023-07-30T08:54:07;20.80;99.90
17483;DHT22;8858;52.308;20.994;2023-07-30T08:56:38;20.80;99.90
17483;DHT22;8858;52.308;20.994;2023-07-30T08:59:09;20.90;99.90
17483;DHT22;8858;52.308;20.994;2023-07-30T09:01:38;20.90;99.90
17483;DHT22;8858;52.308;20.994;2023-07-30T09:04:08;21.00;99.90
17483;DHT22;8858;52.308;20.994;2023-07-30T09:06:39;21.00;99.90
17483;DHT22;8858;52.308;20.994;2023-07-30T09:09:09;21.00;99.90
17483;DHT22;8858;52.308;20.994;2023-07-30T09:11:38;21.10;99.90
17483;DHT22;8858;52.308;20.994;2023-07-30T09:14:08;21.20;99.90
17483;DHT22;8858;52.308;20.994;2023-07-30T09:16:36;21.20;99.90
17483;DHT22;8858;52.308;20.994;2023-07-30T09:19:06;21.30;99.90
17483;DHT22;8858;52.308;20.994;2023-07-30T09:21:35;21.30;99.90
17483;DHT22;8858;52.308;20.994;2023-07-30T09:24:04;21.40;99.90
17483;DHT22;8858;52.308;20.994;2023-07-30T09:26:41;21.40;99.90
17483;DHT22;8858;52.308;20.994;2023-07-30T09:29:12;21.40;99.90
17483;DHT22;8858;52.308;20.994;2023-07-30T09:31:47;21.50;99.90
17483;DHT22;8858;52.308;20.994;2023-07-30T09:34:16;21.50;99.90
17483;DHT22;8858;52.308;20.994;2023-07-30T09:36:45;21.40;99.90
17483;DHT22;8858;52.308;20.994;2023-07-30T09:39:21;21.50;99.90
17483;DHT22;8858;52.308;20.994;2023-07-30T09:41:49;21.50;99.90
17483;DHT22;8858;52.308;20.994;2023-07-30T09:44:21;21.50;99.90
17483;DHT22;8858;52.308;20.994;2023-07-30T09:46:50;21.60;99.90
17483;DHT22;8858;52.308;20.994;2023-07-30T09:49:18;21.60;99.90
17483;DHT22;8858;52.308;20.994;2023-07-30T09:51:52;21.70;99.90
17483;DHT22;8858;52.308;20.994;2023-07-30T09:54:20;21.70;99.90
17483;DHT22;8858;52.308;20.994;2023-07-30T09:56:49;21.70;99.90
17483;DHT22;8858;52.308;20.994;2023-07-30T09:59:17;21.70;99.90
17483;DHT22;8858;52.308;20.994;2023-07-30T10:01:48;21.80;99.90
17483;DHT22;8858;52.308;20.994;2023-07-30T10:04:19;21.80;99.90
17483;DHT22;8858;52.308;20.994;2023-07-30T10:06:51;21.90;99.90
17483;DHT22;8858;52.308;20.994;2023-07-30T10:09:24;21.90;99.90
17483;DHT22;8858;52.308;20.994;2023-07-30T10:11:54;21.90;99.90
17483;DHT22;8858;52.308;20.994;2023-07-30T10:14:24;21.90;99.90
17483;DHT22;8858;52.308;20.994;2023-07-30T10:16:56;22.00;99.90
17483;DHT22;8858;52.308;20.994;2023-07-30T10:19:26;22.00;99.90
17483;DHT22;8858;52.308;20.994;2023-07-30T10:21:58;22.00;99.90
17483;DHT22;8858;52.308;20.994;2023-07-30T10:24:27;22.10;99.90
17483;DHT22;8858;52.308;20.994;2023-07-30T10:26:56;22.20;99.90
17483;DHT22;8858;52.308;20.994;2023-07-30T10:29:26;22.20;99.90
17483;DHT22;8858;52.308;20.994;2023-07-30T10:31:56;22.30;99.90
17483;DHT22;8858;52.308;20.994;2023-07-30T10:34:26;22.40;99.90
17483;DHT22;8858;52.308;20.994;2023-07-30T10:36:56;22.50;99.90
17483;DHT22;8858;52.308;20.994;2023-07-30T10:39:26;22.60;99.90
17483;DHT22;8858;52.308;20.994;2023-07-30T10:41:57;22.60;99.90
17483;DHT22;8858;52.308;20.994;2023-07-30T10:44:31;22.70;99.90
17483;DHT22;8858;52.308;20.994;2023-07-30T10:47:02;22.80;99.90
17483;DHT22;8858;52.308;20.994;2023-07-30T10:49:36;22.80;99.90
17483;DHT22;8858;52.308;20.994;2023-07-30T10:52:05;22.90;99.90
17483;DHT22;8858;52.308;20.994;2023-07-30T10:54:34;22.90;99.90
17483;DHT22;8858;52.308;20.994;2023-07-30T10:57:03;23.00;99.90
17483;DHT22;8858;52.308;20.994;2023-07-30T10:59:34;23.00;99.90
17483;DHT22;8858;52.308;20.994;2023-07-30T11:02:05;23.00;99.90
17483;DHT22;8858;52.308;20.994;2023-07-30T11:04:35;23.00;99.90
17483;DHT22;8858;52.308;20.994;2023-07-30T11:07:04;23.10;99.90
17483;DHT22;8858;52.308;20.994;2023-07-30T11:09:32;23.20;99.90
17483;DHT22;8858;52.308;20.994;2023-07-30T11:12:00;23.30;99.90
17483;DHT22;8858;52.308;20.994;2023-07-30T11:14:31;23.30;99.90
17483;DHT22;8858;52.308;20.994;2023-07-30T11:16:59;23.40;99.90
17483;DHT22;8858;52.308;20.994;2023-07-30T11:19:29;23.50;99.90
17483;DHT22;8858;52.308;20.994;2023-07-30T11:22:00;23.60;99.90
17483;DHT22;8858;52.308;20.994;2023-07-30T11:24:35;23.70;99.90
17483;DHT22;8858;52.308;20.994;2023-07-30T11:27:06;23.70;99.90
17483;DHT22;8858;52.308;20.994;2023-07-30T11:29:35;23.80;99.90
17483;DHT22;8858;52.308;20.994;2023-07-30T11:32:04;23.80;99.90
17483;DHT22;8858;52.308;20.994;2023-07-30T11:34:34;23.90;99.90
17483;DHT22;8858;52.308;20.994;2023-07-30T11:37:06;23.90;99.90
17483;DHT22;8858;52.308;20.994;2023-07-30T11:39:36;24.00;99.90
17483;DHT22;8858;52.308;20.994;2023-07-30T11:42:04;24.00;99.90
17483;DHT22;8858;52.308;20.994;2023-07-30T11:44:35;24.10;99.90
17483;DHT22;8858;52.308;20.994;2023-07-30T11:47:05;24.20;99.90
17483;DHT22;8858;52.308;20.994;2023-07-30T11:49:35;24.30;99.90
17483;DHT22;8858;52.308;20.994;2023-07-30T11:52:07;24.30;99.90
17483;DHT22;8858;52.308;20.994;2023-07-30T11:54:36;24.40;99.90
17483;DHT22;8858;52.308;20.994;2023-07-30T11:57:05;24.40;99.90
17483;DHT22;8858;52.308;20.994;2023-07-30T11:59:34;24.40;99.90
17483;DHT22;8858;52.308;20.994;2023-07-30T12:02:06;24.40;99.90
17483;DHT22;8858;52.308;20.994;2023-07-30T12:04:44;24.40;99.90
17483;DHT22;8858;52.308;20.994;2023-07-30T12:07:28;24.50;99.90
17483;DHT22;8858;52.308;20.994;2023-07-30T12:10:06;24.50;99.90
17483;DHT22;8858;52.308;20.994;2023-07-30T12:12:36;24.50;99.90
17483;DHT22;8858;52.308;20.994;2023-07-30T12:15:10;24.50;99.90
17483;DHT22;8858;52.308;20.994;2023-07-30T12:17:42;24.50;99.90
17483;DHT22;8858;52.308;20.994;2023-07-30T12:20:12;24.40;99.90
17483;DHT22;8858;52.308;20.994;2023-07-30T12:22:41;24.40;99.90
17483;DHT22;8858;52.308;20.994;2023-07-30T12:25:11;24.30;99.90
17483;DHT22;8858;52.308;20.994;2023-07-30T12:27:39;24.20;99.90
17483;DHT22;8858;52.308;20.994;2023-07-30T12:30:11;24.20;99.90
17483;DHT22;8858;52.308;20.994;2023-07-30T12:32:39;24.20;99.90
17483;DHT22;8858;52.308;20.994;2023-07-30T12:35:08;24.20;99.90
17483;DHT22;8858;52.308;20.994;2023-07-30T12:37:37;24.30;99.90
17483;DHT22;8858;52.308;20.994;2023-07-30T12:40:07;24.30;99.90
17483;DHT22;8858;52.308;20.994;2023-07-30T12:42:38;24.30;99.90
17483;DHT22;8858;52.308;20.994;2023-07-30T12:45:07;24.40;99.90
17483;DHT22;8858;52.308;20.994;2023-07-30T12:47:36;24.40;99.90
17483;DHT22;8858;52.308;20.994;2023-07-30T12:50:04;24.50;99.90
17483;DHT22;8858;52.308;20.994;2023-07-30T12:52:33;24.60;99.90
17483;DHT22;8858;52.308;20.994;2023-07-30T12:55:08;24.60;99.90
17483;DHT22;8858;52.308;20.994;2023-07-30T12:57:36;24.80;99.90
17483;DHT22;8858;52.308;20.994;2023-07-30T13:00:06;24.90;99.90
17483;DHT22;8858;52.308;20.994;2023-07-30T13:02:34;25.00;99.90
17483;DHT22;8858;52.308;20.994;2023-07-30T13:05:03;25.20;99.90
17483;DHT22;8858;52.308;20.994;2023-07-30T13:07:34;25.30;99.90
17483;DHT22;8858;52.308;20.994;2023-07-30T13:10:08;25.50;99.90
17483;DHT22;8858;52.308;20.994;2023-07-30T13:12:42;25.60;99.90
17483;DHT22;8858;52.308;20.994;2023-07-30T13:15:11;25.80;99.90
17483;DHT22;8858;52.308;20.994;2023-07-30T13:17:39;25.80;99.90
17483;DHT22;8858;52.308;20.994;2023-07-30T13:20:08;25.90;99.90
17483;DHT22;8858;52.308;20.994;2023-07-30T13:22:37;25.90;99.90
17483;DHT22;8858;52.308;20.994;2023-07-30T13:25:12;25.90;99.90
17483;DHT22;8858;52.308;20.994;2023-07-30T13:27:41;25.90;99.90
17483;DHT22;8858;52.308;20.994;2023-07-30T13:30:10;25.90;99.90
17483;DHT22;8858;52.308;20.994;2023-07-30T13:32:38;25.90;99.90
17483;DHT22;8858;52.308;20.994;2023-07-30T13:35:07;25.80;99.90
17483;DHT22;8858;52.308;20.994;2023-07-30T13:37:40;25.80;99.90
17483;DHT22;8858;52.308;20.994;2023-07-30T13:40:09;25.80;99.90
17483;DHT22;8858;52.308;20.994;2023-07-30T13:42:39;25.80;99.90
17483;DHT22;8858;52.308;20.994;2023-07-30T13:45:08;25.60;99.90
17483;DHT22;8858;52.308;20.994;2023-07-30T13:47:36;25.50;99.90
17483;DHT22;8858;52.308;20.994;2023-07-30T13:50:08;25.40;99.90
17483;DHT22;8858;52.308;20.994;2023-07-30T13:52:36;25.40;99.90
17483;DHT22;8858;52.308;20.994;2023-07-30T13:55:05;25.30;99.90
17483;DHT22;8858;52.308;20.994;2023-07-30T13:57:33;25.20;99.90
17483;DHT22;8858;52.308;20.994;2023-07-30T14:00:05;25.20;99.90
17483;DHT22;8858;52.308;20.994;2023-07-30T14:02:37;25.20;99.90
17483;DHT22;8858;52.308;20.994;2023-07-30T14:05:05;25.10;99.90
17483;DHT22;8858;52.308;20.994;2023-07-30T14:07:34;25.00;99.90
17483;DHT22;8858;52.308;20.994;2023-07-30T14:10:02;24.90;99.90
17483;DHT22;8858;52.308;20.994;2023-07-30T14:12:31;24.90;99.90
17483;DHT22;8858;52.308;20.994;2023-07-30T14:14:59;24.80;99.90
17483;DHT22;8858;52.308;20.994;2023-07-30T14:17:29;24.70;99.90
17483;DHT22;8858;52.308;20.994;2023-07-30T14:19:59;24.60;99.90
17483;DHT22;8858;52.308;20.994;2023-07-30T14:22:30;24.40;99.90
17483;DHT22;8858;52.308;20.994;2023-07-30T14:24:58;24.30;99.90
17483;DHT22;8858;52.308;20.994;2023-07-30T14:27:26;24.20;99.90
17483;DHT22;8858;52.308;20.994;2023-07-30T14:29:54;24.20;99.90
17483;DHT22;8858;52.308;20.994;2023-07-30T14:32:23;24.20;99.90
17483;DHT22;8858;52.308;20.994;2023-07-30T14:34:58;24.20;99.90
17483;DHT22;8858;52.308;20.994;2023-07-30T14:37:26;24.20;99.90
17483;DHT22;8858;52.308;20.994;2023-07-30T14:39:55;24.30;99.90
17483;DHT22;8858;52.308;20.994;2023-07-30T14:42:23;24.30;99.90
17483;DHT22;8858;52.308;20.994;2023-07-30T14:44:51;24.30;99.90
17483;DHT22;8858;52.308;20.994;2023-07-30T14:47:24;24.30;99.90
17483;DHT22;8858;52.308;20.994;2023-07-30T14:49:53;24.30;99.90
17483;DHT22;8858;52.308;20.994;2023-07-30T14:52:23;24.30;99.90
17483;DHT22;8858;52.308;20.994;2023-07-30T14:54:51;24.20;99.90
17483;DHT22;8858;52.308;20.994;2023-07-30T14:57:19;24.20;99.90
17483;DHT22;8858;52.308;20.994;2023-07-30T14:59:48;24.20;99.90
17483;DHT22;8858;52.308;20.994;2023-07-30T15:02:17;24.20;99.90
17483;DHT22;8858;52.308;20.994;2023-07-30T15:04:45;24.20;99.90
17483;DHT22;8858;52.308;20.994;2023-07-30T15:07:13;24.20;99.90
17483;DHT22;8858;52.308;20.994;2023-07-30T15:09:43;24.20;99.90
17483;DHT22;8858;52.308;20.994;2023-07-30T15:12:13;24.40;99.90
17483;DHT22;8858;52.308;20.994;2023-07-30T15:14:41;24.60;99.90
17483;DHT22;8858;52.308;20.994;2023-07-30T15:17:11;24.80;99.90
17483;DHT22;8858;52.308;20.994;2023-07-30T15:19:40;25.00;99.90
17483;DHT22;8858;52.308;20.994;2023-07-30T15:22:09;25.10;99.90
17483;DHT22;8858;52.308;20.994;2023-07-30T15:24:37;25.20;99.90
17483;DHT22;8858;52.308;20.994;2023-07-30T15:27:07;25.30;99.90
17483;DHT22;8858;52.308;20.994;2023-07-30T15:29:35;25.30;99.90
17483;DHT22;8858;52.308;20.994;2023-07-30T15:32:03;25.30;99.90
17483;DHT22;8858;52.308;20.994;2023-07-30T15:34:32;25.30;99.90
17483;DHT22;8858;52.308;20.994;2023-07-30T15:37:00;25.40;99.90
17483;DHT22;8858;52.308;20.994;2023-07-30T15:39:29;25.40;99.90
17483;DHT22;8858;52.308;20.994;2023-07-30T15:42:01;25.60;99.90
17483;DHT22;8858;52.308;20.994;2023-07-30T15:44:31;25.70;99.90